createdAt,value
2019-04-10T00:09:14.787Z,991.50
2019-04-10T00:19:14.866Z,991.56
2019-04-10T00:29:14.173Z,991.53
2019-04-10T00:39:14.700Z,991.55
2019-04-10T00:49:14.114Z,991.68
2019-04-10T00:59:14.298Z,991.62
2019-04-10T01:09:14.074Z,991.64
2019-04-10T01:19:15.435Z,991.60
2019-04-10T01:29:15.476Z,991.63
2019-04-10T01:39:14.104Z,991.62
2019-04-10T01:49:14.079Z,991.66
2019-04-10T01:59:14.058Z,991.68
2019-04-10T02:09:14.995Z,991.57
2019-04-10T02:19:14.310Z,991.62
2019-04-10T02:29:15.524Z,991.63
2019-04-10T02:39:20.599Z,991.67
2019-04-10T02:49:14.413Z,991.73
2019-04-10T02:59:15.469Z,991.78
2019-04-10T03:09:28.942Z,991.82
2019-04-10T03:19:14.042Z,991.82
2019-04-10T03:29:14.105Z,991.82
2019-04-10T03:39:15.256Z,991.85
2019-04-10T03:49:14.070Z,991.85
2019-04-10T03:59:14.081Z,991.95
2019-04-10T04:09:14.784Z,992.05
2019-04-10T04:19:14.135Z,991.98
2019-04-10T04:29:14.388Z,992.06
2019-04-10T04:39:21.608Z,992.25
2019-04-10T04:49:14.075Z,992.26
2019-04-10T04:59:14.243Z,992.38
2019-04-10T05:09:25.989Z,992.56
2019-04-10T05:19:14.346Z,992.65
2019-04-10T05:29:15.294Z,992.80
2019-04-10T05:39:14.705Z,992.92
2019-04-10T05:49:15.008Z,993.03
2019-04-10T05:59:14.701Z,993.08
2019-04-10T06:09:14.360Z,993.13
2019-04-10T06:19:14.193Z,993.07
2019-04-10T06:29:14.965Z,993.21
2019-04-10T06:39:14.031Z,993.19
2019-04-10T06:49:14.475Z,993.26
2019-04-10T06:59:14.217Z,993.36
2019-04-10T07:09:14.324Z,993.37
2019-04-10T07:19:14.138Z,993.45
2019-04-10T07:29:18.718Z,993.53
2019-04-10T07:39:15.115Z,993.61
2019-04-10T07:49:17.660Z,993.64
2019-04-10T07:59:14.103Z,993.66
2019-04-10T08:09:14.754Z,993.78
2019-04-10T08:19:14.612Z,993.85
2019-04-10T08:29:14.280Z,993.89
2019-04-10T08:39:27.722Z,993.91
2019-04-10T08:49:14.920Z,994.03
2019-04-10T08:59:14.219Z,994.08
2019-04-10T09:09:15.328Z,994.16
2019-04-10T09:19:16.125Z,994.20
2019-04-10T09:38:18.844Z,994.18
2019-04-10T09:48:20.139Z,994.15
2019-04-10T09:58:18.401Z,994.14
2019-04-10T10:08:19.051Z,994.20
2019-04-10T10:18:19.255Z,994.17
2019-04-10T10:28:20.688Z,994.18
2019-04-10T10:38:19.018Z,994.23
2019-04-10T10:48:19.951Z,994.17
2019-04-10T10:58:19.684Z,994.16
2019-04-10T11:08:19.147Z,994.24
2019-04-10T11:18:18.322Z,994.27
2019-04-10T11:28:18.784Z,994.24
2019-04-10T11:38:19.206Z,994.22
2019-04-10T11:48:23.009Z,994.24
2019-04-10T11:58:18.240Z,994.32
2019-04-10T12:08:44.842Z,994.38
2019-04-10T12:18:18.942Z,994.42
2019-04-10T12:28:20.053Z,994.43
2019-04-10T12:38:19.312Z,994.42
2019-04-10T12:48:18.748Z,994.55
2019-04-10T13:08:31.127Z,994.56
2019-04-10T13:18:30.125Z,994.47
2019-04-10T13:28:25.808Z,994.57
2019-04-10T13:38:29.255Z,994.56
2019-04-10T13:48:26.034Z,994.48
2019-04-10T13:58:27.500Z,994.52
2019-04-10T14:08:40.622Z,994.51
2019-04-10T14:18:27.021Z,994.54
2019-04-10T14:28:27.099Z,994.60
2019-04-10T14:38:27.394Z,994.68
2019-04-10T14:48:25.770Z,994.78
2019-04-10T14:58:28.974Z,994.83
2019-04-10T15:08:26.013Z,994.82
2019-04-10T15:18:26.866Z,995.03
2019-04-10T15:28:27.461Z,994.97
2019-04-10T15:38:28.431Z,994.93
2019-04-10T16:12:21.262Z,995.03
2019-04-10T16:22:21.332Z,995.18
2019-04-10T16:32:21.720Z,995.34
2019-04-10T16:45:40.587Z,995.36
2019-04-10T16:55:41.009Z,995.44
2019-04-10T17:05:41.862Z,995.51
2019-04-10T17:15:41.810Z,995.53
2019-04-10T17:25:40.613Z,995.67
2019-04-10T17:35:40.681Z,995.74
2019-04-10T17:45:40.758Z,995.90
2019-04-10T17:55:41.888Z,996.02
2019-04-10T18:05:40.570Z,996.19
2019-04-10T18:15:40.980Z,996.24
2019-04-10T18:25:40.733Z,996.34
2019-04-10T18:35:40.766Z,996.65
2019-04-10T18:45:42.090Z,996.80
2019-04-10T18:55:40.753Z,996.89
2019-04-10T19:05:40.694Z,996.98
2019-04-10T19:15:41.684Z,997.12
2019-04-10T19:25:40.878Z,997.20
2019-04-10T19:35:41.368Z,997.33
2019-04-10T19:45:41.787Z,997.48
2019-04-10T19:55:40.620Z,997.56
2019-04-10T20:05:41.515Z,997.68
2019-04-10T20:15:40.619Z,997.88
2019-04-10T20:25:46.234Z,997.97
2019-04-10T20:35:40.586Z,998.06
2019-04-10T20:45:40.633Z,998.14
2019-04-10T20:55:41.837Z,998.23
2019-04-10T21:05:40.606Z,998.30
2019-04-10T21:15:40.665Z,998.41
2019-04-10T21:25:41.573Z,998.50
2019-04-10T21:35:41.503Z,998.51
2019-04-10T21:45:41.310Z,998.62
2019-04-10T21:55:41.673Z,998.69
2019-04-10T22:05:40.973Z,998.66
2019-04-10T22:15:41.446Z,998.68
2019-04-10T22:25:40.564Z,998.71
2019-04-10T22:35:40.547Z,998.77
2019-04-10T22:45:40.547Z,998.79
2019-04-10T22:55:40.578Z,998.83
2019-04-10T23:05:40.683Z,998.84
2019-04-10T23:15:41.769Z,998.90
2019-04-10T23:25:40.637Z,999.01
2019-04-10T23:35:41.284Z,998.94
2019-04-10T23:45:40.577Z,999.07
2019-04-10T23:55:40.564Z,999.16
